Wesleyville, Canada
Current Conditions -  °F | °C
As of 1:00 AM on Monday 26 Jan 2015 (Local Time) from CYQX Reporting Station
Few Clouds Few Clouds  
Wind Chill: 17°   Ceiling: Unl
Heat Index: 28°   Visibility: 20mi
Dew Point: 23°   Wind: 16mph
Humidity: 80%   Direction: 190°S
Pressure: 29.25"   Gusts: 25mph
Location:  49.15°N, 53.58°W
Report Text: CYQX 260400Z 19014G22KT 20SM FEW025 FEW260 M02/M05 A2925 RMK SC1CI1 SLP911
Loading
Personal Weather Stations






























Interactive Weather Map New forecast layout! Learn more

10-Day Weather Forecast

Advertisements
Track Severe Weather on mobile